To NAV CANADA Home Page Login to a new session Search on AWWS site Feedback and Comments Disclaimer Vers la page française équivalente Tips FAQ What's new on the site To the Forecasts and Observations / NOTAM section To "File a Flight Plan" website Publications and other links Update of the User's profile FIC Telephone Numbers My Weather Data Folder Route Weather Data Regional Weather Data Local Weather Data To the Forecasts and Observations / NOTAM section
Request Generated 12/10/2016 at 16:30:11 UTC . Weather information available at that time is displayed.

METAR/TAF

LYNN LAKE/MB    (show WxCam)

SPECI CYYL 101605Z AUTO 23005KT 6SM -SN BKN040 BKN048 OVC065 M24/M26
A3018 RMK SLP269=
METAR CYYL 101600Z AUTO 23005KT 5SM -SN BKN040 OVC070 M24/M26 A3018
RMK SLP269=
SPECI CYYL 101555Z AUTO 22005KT 5SM -SN BKN044 OVC065 M24/M26 A3018
RMK SLP269=
SPECI CYYL 101545Z AUTO 22004KT 9SM -SN BKN065 OVC076 M24/M26 A3019
RMK SLP270=
METAR CYYL 101500Z AUTO 23003KT 9SM SCT085 SCT120 BKN160 BKN180
M24/M26 A3020 RMK SLP276=
METAR CYYL 101400Z AUTO 25004KT 9SM BKN028 OVC070 M23/M25 A3022 RMK
SLP281=

TAF AMD CYYL 101600Z 1016/1101 23006KT P6SM -SN BKN040 BKN080 TEMPO
1016/1018 5SM -SN IC
FM101800 25008KT P6SM IC SCT030 SCT080
RMK FCST BASED ON AUTO OBS. NXT FCST BY 101900Z=
Your time UTC time
Weather data provided by Environment Canada and NAV CANADA